Time;durP1;ratioP1;P1;durP2;ratioP2;P2;SDS_P1;SDS_P2;PMS_P1;PMS_P2;Temp;Humidity;BMP_temperature;BMP_pressure;BME280_temperature;BME280_humidity;BME280_pressure;Samples;Min_cycle;Max_cycle;Signal;HPM_P1;HPM_P2
2022/12/18 00:01:39;;;;;;;51.73;25.77;;;-2.50;99.90;;;;;;5115393;28;20170;-71
2022/12/18 00:04:07;;;;;;;58.80;27.27;;;-2.60;99.90;;;;;;5025202;28;20259;-71
2022/12/18 00:06:34;;;;;;;55.87;26.20;;;-2.70;99.90;;;;;;5115061;28;20173;-71
2022/12/18 00:09:01;;;;;;;52.67;25.67;;;-2.60;99.90;;;;;;5115445;28;20706;-70
2022/12/18 00:11:29;;;;;;;55.67;26.83;;;-2.60;99.90;;;;;;5096880;28;20170;-71
2022/12/18 00:13:56;;;;;;;59.17;26.97;;;-2.60;99.90;;;;;;5115115;28;20172;-71
2022/12/18 00:16:24;;;;;;;60.53;27.87;;;-2.70;99.90;;;;;;5114897;28;20215;-70
2022/12/18 00:18:53;;;;;;;52.43;26.17;;;-2.80;99.90;;;;;;5115097;28;20177;-71
2022/12/18 00:21:20;;;;;;;60.17;26.97;;;-2.80;99.90;;;;;;5115291;28;20210;-71
2022/12/18 00:23:47;;;;;;;62.83;26.20;;;-2.90;99.90;;;;;;5114865;28;20636;-70
2022/12/18 00:26:18;;;;;;;60.53;26.63;;;-2.90;99.90;;;;;;5114814;28;20622;-70
2022/12/18 00:28:45;;;;;;;64.20;26.20;;;-3.00;99.90;;;;;;5114960;28;20193;-70
2022/12/18 00:31:14;;;;;;;59.43;25.50;;;-3.00;99.90;;;;;;5114526;28;20163;-70
2022/12/18 00:33:39;;;;;;;54.83;26.27;;;-3.00;99.90;;;;;;5114734;28;20159;-70
2022/12/18 00:36:09;;;;;;;51.80;24.73;;;-2.90;99.90;;;;;;5096301;28;20693;-70
2022/12/18 00:38:35;;;;;;;58.97;25.50;;;-2.80;99.90;;;;;;5114383;28;20609;-70
2022/12/18 00:41:01;;;;;;;57.90;26.47;;;-2.80;99.90;;;;;;5095936;28;20191;-71
2022/12/18 00:43:27;;;;;;;61.40;25.53;;;-2.80;99.90;;;;;;5114488;28;20629;-70
2022/12/18 00:45:54;;;;;;;52.67;25.93;;;-2.90;99.90;;;;;;5114340;28;20174;-70
2022/12/18 00:48:19;;;;;;;56.57;26.83;;;-2.90;99.90;;;;;;5114318;28;20573;-70
2022/12/18 00:50:47;;;;;;;56.33;25.60;;;-3.00;99.90;;;;;;5114362;28;20162;-70
2022/12/18 00:53:13;;;;;;;61.77;26.33;;;-3.00;99.90;;;;;;5114306;28;20192;-70
2022/12/18 00:55:42;;;;;;;61.97;26.20;;;-3.00;99.90;;;;;;5114220;28;20181;-70
2022/12/18 00:58:09;;;;;;;58.23;25.10;;;-3.10;99.90;;;;;;5114175;28;20168;-71
2022/12/18 01:00:35;;;;;;;54.07;24.53;;;-3.20;99.90;;;;;;5113812;28;20260;-70
2022/12/18 01:03:01;;;;;;;61.03;28.07;;;-3.20;99.90;;;;;;5114174;28;20181;-70
2022/12/18 01:05:28;;;;;;;52.47;25.67;;;-3.20;99.90;;;;;;5114040;28;20286;-71
2022/12/18 01:07:54;;;;;;;61.40;26.23;;;-3.30;99.90;;;;;;5095620;28;20178;-71
2022/12/18 01:10:20;;;;;;;52.00;25.73;;;-3.30;99.90;;;;;;5113917;28;20201;-71
2022/12/18 01:12:46;;;;;;;58.93;26.73;;;-3.20;99.90;;;;;;5113710;28;20163;-70
2022/12/18 01:15:13;;;;;;;57.60;25.80;;;-3.30;99.90;;;;;;5113762;28;20162;-70
2022/12/18 01:17:40;;;;;;;53.33;25.03;;;-3.30;99.90;;;;;;5113530;28;20161;-71
2022/12/18 01:20:06;;;;;;;53.63;25.77;;;-3.10;99.90;;;;;;5113425;28;20235;-72
2022/12/18 01:22:32;;;;;;;53.43;26.23;;;-3.00;99.90;;;;;;5113881;28;20154;-70
2022/12/18 01:24:58;;;;;;;66.77;27.97;;;-3.10;99.90;;;;;;5095318;28;20177;-70
2022/12/18 01:27:24;;;;;;;56.07;26.43;;;-3.20;99.90;;;;;;5113505;28;20518;-70
2022/12/18 01:29:50;;;;;;;59.47;25.73;;;-3.30;99.90;;;;;;5113384;28;20211;-70
2022/12/18 01:32:15;;;;;;;56.20;25.40;;;-3.30;99.90;;;;;;5113550;28;20559;-70
2022/12/18 01:34:41;;;;;;;56.13;25.03;;;-3.30;99.90;;;;;;5113447;28;20166;-70
2022/12/18 01:37:06;;;;;;;55.67;25.73;;;-3.30;99.90;;;;;;5113649;28;20158;-71
2022/12/18 01:39:33;;;;;;;60.87;25.90;;;-3.30;99.90;;;;;;5113450;28;20162;-70
2022/12/18 01:42:08;;;;;;;47.40;23.73;;;-3.50;99.90;;;;;;5113362;28;20161;-70
2022/12/18 01:44:57;;;;;;;56.53;26.00;;;-3.40;99.90;;;;;;5113347;28;20215;-72
2022/12/18 01:47:43;;;;;;;54.20;23.10;;;-3.30;99.90;;;;;;5095026;28;20180;-70
2022/12/18 01:50:18;;;;;;;51.13;22.50;;;-3.40;99.90;;;;;;5113209;28;20248;-70
2022/12/18 01:52:47;;;;;;;47.93;22.80;;;-3.40;99.90;;;;;;5113366;28;20222;-72
2022/12/18 01:55:16;;;;;;;52.67;23.33;;;-3.40;99.90;;;;;;5094932;28;20170;-70
2022/12/18 01:57:43;;;;;;;53.47;23.77;;;-3.40;99.90;;;;;;5113118;28;20162;-70
2022/12/18 02:00:13;;;;;;;53.47;24.23;;;-3.40;99.90;;;;;;5113250;28;20181;-69
2022/12/18 02:02:40;;;;;;;50.03;23.97;;;-3.40;99.90;;;;;;5113179;28;20653;-71
2022/12/18 02:05:06;;;;;;;49.90;23.93;;;-3.50;99.90;;;;;;5094914;28;20264;-71
2022/12/18 02:07:42;;;;;;;50.90;23.47;;;-3.50;99.90;;;;;;5094863;28;20278;-70
2022/12/18 02:10:13;;;;;;;48.00;22.07;;;-3.50;99.90;;;;;;5112969;28;20191;-70
2022/12/18 02:12:48;;;;;;;49.03;23.10;;;-3.60;99.90;;;;;;5094667;28;20174;-70
2022/12/18 02:15:20;;;;;;;50.53;22.73;;;-3.60;99.90;;;;;;5113048;28;20177;-70
2022/12/18 02:17:55;;;;;;;45.87;22.27;;;-3.60;99.90;;;;;;5112969;28;20623;-69
2022/12/18 02:20:32;;;;;;;48.17;23.07;;;-3.60;99.90;;;;;;5112814;28;20255;-69
2022/12/18 02:23:25;;;;;;;42.70;22.13;;;-3.60;99.90;;;;;;5113135;28;20161;-70
2022/12/18 02:26:09;;;;;;;45.73;21.80;;;-3.60;99.90;;;;;;5112807;28;20520;-71
2022/12/18 02:28:59;;;;;;;53.37;22.37;;;-3.70;99.90;;;;;;5094740;28;20188;-71
2022/12/18 02:31:29;;;;;;;45.93;20.77;;;-3.60;99.90;;;;;;5114452;28;20254;-71
2022/12/18 02:33:58;;;;;;;47.70;22.23;;;-3.70;99.90;;;;;;5116965;28;20154;-71
2022/12/18 02:36:27;;;;;;;44.47;22.40;;;-3.70;99.90;;;;;;5116863;28;20209;-70
2022/12/18 02:38:55;;;;;;;45.53;21.67;;;-3.70;99.90;;;;;;5117017;28;20201;-70
2022/12/18 02:41:22;;;;;;;50.73;22.40;;;-3.70;99.90;;;;;;5098197;28;20158;-69
2022/12/18 02:43:52;;;;;;;48.63;23.00;;;-3.80;99.90;;;;;;5116984;28;20166;-69
2022/12/18 02:46:36;;;;;;;51.37;23.17;;;-3.70;99.90;;;;;;5098234;28;20222;-69
2022/12/18 02:49:28;;;;;;;46.73;21.77;;;-3.70;99.90;;;;;;5116744;28;20224;-69
2022/12/18 02:52:00;;;;;;;44.30;20.70;;;-3.80;99.90;;;;;;5098311;28;20695;-69
2022/12/18 02:55:04;;;;;;;45.47;21.20;;;-3.80;99.90;;;;;;5098234;28;20166;-70
2022/12/18 02:58:10;;;;;;;46.67;20.73;;;-3.80;99.90;;;;;;5077191;28;20177;-70
2022/12/18 03:00:58;;;;;;;41.17;20.23;;;-3.80;99.90;;;;;;5013908;28;20543;-70
2022/12/18 03:03:43;;;;;;;46.70;20.43;;;-3.80;99.90;;;;;;5114608;28;20178;-71
2022/12/18 03:06:16;;;;;;;43.00;20.57;;;-3.80;99.90;;;;;;5116511;28;20223;-69
2022/12/18 03:08:48;;;;;;;42.70;20.60;;;-3.80;99.90;;;;;;5116273;28;20186;-69
2022/12/18 03:11:15;;;;;;;45.43;21.43;;;-3.80;99.90;;;;;;5116352;28;20158;-69
2022/12/18 03:13:50;;;;;;;43.83;19.67;;;-3.80;99.90;;;;;;5116266;28;20175;-70
2022/12/18 03:16:22;;;;;;;44.63;19.43;;;-4.00;99.90;;;;;;5116179;28;20215;-70
2022/12/18 03:19:01;;;;;;;40.67;18.10;;;-3.90;99.90;;;;;;5116022;28;20259;-70
2022/12/18 03:21:36;;;;;;;35.70;18.00;;;-3.90;99.90;;;;;;5097865;28;20201;-69
2022/12/18 03:24:06;;;;;;;39.93;17.43;;;-3.90;99.90;;;;;;5115851;28;20170;-69
2022/12/18 03:26:35;;;;;;;34.53;16.17;;;-3.80;99.90;;;;;;5097805;28;20169;-69
2022/12/18 03:29:06;;;;;;;38.20;17.03;;;-3.80;99.90;;;;;;5116070;28;20197;-69
2022/12/18 03:31:36;;;;;;;29.03;15.07;;;-3.60;99.90;;;;;;5115972;28;20162;-70
2022/12/18 03:34:09;;;;;;;29.53;16.00;;;-3.60;99.90;;;;;;5097634;28;20165;-70
2022/12/18 03:36:34;;;;;;;31.07;15.43;;;-3.60;99.90;;;;;;5115816;28;20747;-70
2022/12/18 03:39:00;;;;;;;31.00;16.77;;;-3.60;99.90;;;;;;5097508;28;20179;-70
2022/12/18 03:41:44;;;;;;;37.73;17.67;;;-3.50;99.90;;;;;;5097042;28;20180;-70
2022/12/18 03:44:53;;;;;;;34.33;16.20;;;-3.40;99.90;;;;;;5097352;28;20559;-70
2022/12/18 03:47:36;;;;;;;36.90;17.13;;;-3.40;99.90;;;;;;5012902;28;20377;-70
2022/12/18 03:50:08;;;;;;;37.30;17.83;;;-3.50;99.90;;;;;;5013120;28;20193;-70
2022/12/18 03:53:15;;;;;;;39.10;18.47;;;-3.50;99.90;;;;;;5076065;28;20182;-70
2022/12/18 03:55:42;;;;;;;36.97;18.23;;;-3.60;99.90;;;;;;5111590;28;20178;-71
2022/12/18 03:58:12;;;;;;;37.97;17.83;;;-3.60;99.90;;;;;;5115340;28;20622;-70
2022/12/18 04:00:39;;;;;;;37.43;17.00;;;-3.80;99.90;;;;;;5115427;28;20186;-71
2022/12/18 04:03:08;;;;;;;34.30;16.93;;;-3.80;99.90;;;;;;5115216;28;20166;-70
2022/12/18 04:05:36;;;;;;;35.87;17.03;;;-3.80;99.90;;;;;;5115185;28;20158;-70
2022/12/18 04:08:02;;;;;;;33.50;16.93;;;-3.80;99.90;;;;;;5114986;28;20169;-70
2022/12/18 04:10:28;;;;;;;33.77;16.77;;;-3.80;99.90;;;;;;5115166;28;20190;-70
2022/12/18 04:12:57;;;;;;;32.10;16.07;;;-3.80;99.90;;;;;;5115041;28;20169;-71
2022/12/18 04:15:24;;;;;;;35.07;17.13;;;-3.80;99.90;;;;;;5115054;28;20239;-69
2022/12/18 04:17:50;;;;;;;35.53;17.40;;;-4.00;99.90;;;;;;5114947;28;20670;-70
2022/12/18 04:20:16;;;;;;;35.20;16.37;;;-3.90;99.90;;;;;;5114803;28;20653;-70
2022/12/18 04:22:42;;;;;;;36.30;16.60;;;-3.90;99.90;;;;;;5114746;28;20198;-72
2022/12/18 04:25:09;;;;;;;33.37;16.30;;;-4.00;99.90;;;;;;5096412;28;20649;-69
2022/12/18 04:27:34;;;;;;;30.50;15.47;;;-4.00;99.90;;;;;;5114819;28;20162;-69
2022/12/18 04:30:00;;;;;;;31.53;15.43;;;-4.00;99.90;;;;;;5114466;28;20198;-71
2022/12/18 04:32:26;;;;;;;30.97;15.87;;;-4.00;99.90;;;;;;5114717;28;20593;-71
2022/12/18 04:34:51;;;;;;;32.67;15.47;;;-3.90;99.90;;;;;;5114602;28;20228;-69
2022/12/18 04:37:17;;;;;;;31.13;16.03;;;-3.80;99.90;;;;;;5096209;28;20170;-70
2022/12/18 04:39:43;;;;;;;30.77;16.37;;;-3.90;99.90;;;;;;5114554;28;20174;-71
2022/12/18 04:42:08;;;;;;;30.13;15.40;;;-4.00;99.90;;;;;;5114568;28;20189;-69
2022/12/18 04:44:34;;;;;;;30.03;14.80;;;-3.90;99.90;;;;;;5096214;28;20180;-70
2022/12/18 04:47:00;;;;;;;33.07;16.33;;;-3.90;99.90;;;;;;5114398;28;20166;-71
2022/12/18 04:49:26;;;;;;;30.23;14.57;;;-3.90;99.90;;;;;;5114221;28;20193;-70
2022/12/18 04:51:52;;;;;;;35.23;16.03;;;-4.00;99.90;;;;;;5095916;28;20215;-70
2022/12/18 04:54:18;;;;;;;26.40;14.23;;;-4.00;99.90;;;;;;5113432;28;20219;-70
2022/12/18 04:56:43;;;;;;;26.47;14.50;;;-4.00;99.90;;;;;;5114292;28;20166;-70
2022/12/18 04:59:09;;;;;;;29.03;13.73;;;-4.00;99.90;;;;;;5114376;28;20174;-70
2022/12/18 05:01:35;;;;;;;29.90;14.57;;;-4.10;99.90;;;;;;5114102;28;20176;-70
2022/12/18 05:04:01;;;;;;;25.73;13.97;;;-4.10;99.90;;;;;;5113972;28;20627;-70
2022/12/18 05:06:27;;;;;;;26.53;13.60;;;-4.00;99.90;;;;;;5113876;28;20184;-71
2022/12/18 05:08:52;;;;;;;21.53;13.07;;;-4.00;99.90;;;;;;5114074;28;20189;-70
2022/12/18 05:11:19;;;;;;;29.53;14.00;;;-4.00;99.90;;;;;;5113922;28;20197;-70
2022/12/18 05:13:46;;;;;;;26.37;13.40;;;-4.00;99.90;;;;;;5113992;28;20577;-70
2022/12/18 05:16:12;;;;;;;26.30;13.67;;;-4.00;99.90;;;;;;5113824;28;20266;-70
2022/12/18 05:18:38;;;;;;;26.13;13.50;;;-4.00;99.90;;;;;;5113682;28;20166;-71
2022/12/18 05:21:04;;;;;;;24.33;13.27;;;-4.00;99.90;;;;;;5113467;28;20207;-71
2022/12/18 05:23:30;;;;;;;28.07;13.93;;;-4.00;99.90;;;;;;5114092;28;20203;-70
2022/12/18 05:25:58;;;;;;;30.80;14.80;;;-4.00;99.90;;;;;;5113642;28;20532;-70
2022/12/18 05:28:25;;;;;;;28.73;13.33;;;-3.90;99.90;;;;;;5113918;28;20169;-70
2022/12/18 05:30:55;;;;;;;24.87;13.13;;;-4.00;99.90;;;;;;5113523;28;20170;-70
2022/12/18 05:33:23;;;;;;;24.77;13.60;;;-4.00;99.90;;;;;;5095441;28;20168;-70
2022/12/18 05:35:54;;;;;;;26.10;13.20;;;-4.00;99.90;;;;;;5113222;28;20186;-70
2022/12/18 05:38:22;;;;;;;24.30;12.80;;;-4.00;99.90;;;;;;5113632;28;20245;-70
2022/12/18 05:40:49;;;;;;;26.13;13.33;;;-4.00;99.90;;;;;;5095059;28;20653;-70
2022/12/18 05:43:15;;;;;;;26.50;13.87;;;-4.10;99.90;;;;;;5113481;28;20237;-71
2022/12/18 05:45:41;;;;;;;33.47;15.33;;;-4.00;99.90;;;;;;5113145;28;20257;-69
2022/12/18 05:48:07;;;;;;;26.63;12.60;;;-3.80;99.90;;;;;;5113347;28;20507;-70
2022/12/18 05:50:37;;;;;;;27.77;12.93;;;-3.90;99.90;;;;;;5112967;28;20724;-71
2022/12/18 05:53:04;;;;;;;24.57;12.43;;;-3.90;99.90;;;;;;5095143;28;20252;-70
2022/12/18 05:55:33;;;;;;;25.63;13.00;;;-4.00;99.90;;;;;;5113216;28;20635;-70
2022/12/18 05:57:59;;;;;;;27.27;12.90;;;-4.00;99.90;;;;;;5113242;28;20149;-69
2022/12/18 06:00:24;;;;;;;28.97;13.77;;;-4.10;99.90;;;;;;5113114;28;20174;-69
2022/12/18 06:02:50;;;;;;;21.17;12.27;;;-4.00;99.90;;;;;;5113001;28;20178;-70
2022/12/18 06:05:16;;;;;;;24.73;12.90;;;-4.00;99.90;;;;;;5113016;28;20150;-71
2022/12/18 06:07:42;;;;;;;24.23;12.07;;;-4.00;99.90;;;;;;5113122;28;20166;-72
2022/12/18 06:10:08;;;;;;;27.60;13.00;;;-3.90;99.90;;;;;;5113288;28;20246;-72
2022/12/18 06:12:33;;;;;;;27.67;13.20;;;-3.90;99.90;;;;;;5112904;28;20173;-69
2022/12/18 06:14:59;;;;;;;24.77;12.77;;;-3.90;99.90;;;;;;5113124;28;20695;-69
2022/12/18 06:17:30;;;;;;;28.33;12.17;;;-3.90;99.90;;;;;;5112834;28;20237;-70
2022/12/18 06:19:55;;;;;;;22.23;11.87;;;-3.90;99.90;;;;;;5112848;28;20231;-70
2022/12/18 06:22:21;;;;;;;24.33;12.30;;;-4.00;99.90;;;;;;5113019;28;20513;-70
2022/12/18 06:24:47;;;;;;;25.60;13.50;;;-4.00;99.90;;;;;;5112930;28;20272;-70
2022/12/18 06:27:12;;;;;;;22.43;12.67;;;-4.00;99.90;;;;;;5112711;28;20197;-70
2022/12/18 06:29:38;;;;;;;26.30;12.57;;;-3.90;99.90;;;;;;5094764;28;20589;-70
2022/12/18 06:32:04;;;;;;;23.90;12.17;;;-3.90;99.90;;;;;;5112937;28;20174;-70
2022/12/18 06:34:31;;;;;;;22.73;12.77;;;-3.90;99.90;;;;;;5112931;28;20478;-70
2022/12/18 06:36:56;;;;;;;23.67;13.47;;;-4.00;99.90;;;;;;5112802;28;20162;-70
2022/12/18 06:39:22;;;;;;;23.70;12.57;;;-3.90;99.90;;;;;;5094736;28;20618;-70
2022/12/18 06:41:47;;;;;;;26.90;11.97;;;-3.90;99.90;;;;;;5112701;28;20195;-70
2022/12/18 06:44:13;;;;;;;23.27;13.10;;;-3.90;99.90;;;;;;5112847;28;20194;-70
2022/12/18 06:46:41;;;;;;;25.63;12.00;;;-3.80;99.90;;;;;;5112374;28;20188;-70
2022/12/18 06:49:08;;;;;;;22.80;11.93;;;-3.90;99.90;;;;;;5094565;28;20221;-70
2022/12/18 06:51:34;;;;;;;23.77;11.30;;;-3.90;99.90;;;;;;5094574;28;20166;-71
2022/12/18 06:54:01;;;;;;;24.17;12.27;;;-3.90;99.90;;;;;;5094594;28;20172;-72
2022/12/18 06:56:27;;;;;;;23.33;12.90;;;-3.90;99.90;;;;;;5112632;28;20184;-70
2022/12/18 06:58:55;;;;;;;24.73;12.53;;;-3.80;99.90;;;;;;5094550;28;20534;-70
2022/12/18 07:01:22;;;;;;;20.07;11.87;;;-3.90;99.90;;;;;;5112599;28;20154;-72
2022/12/18 07:03:53;;;;;;;26.17;11.50;;;-3.90;99.90;;;;;;5112687;28;20161;-70
2022/12/18 07:06:21;;;;;;;25.37;12.43;;;-3.90;99.90;;;;;;5094417;28;20169;-70
2022/12/18 07:08:48;;;;;;;19.20;11.30;;;-4.00;99.90;;;;;;5112421;28;20172;-70
2022/12/18 07:11:14;;;;;;;24.33;11.07;;;-4.00;99.90;;;;;;5112786;28;20292;-70
2022/12/18 07:13:40;;;;;;;23.90;12.23;;;-4.00;99.90;;;;;;5112539;28;20165;-71
2022/12/18 07:16:17;;;;;;;24.07;11.70;;;-4.00;99.90;;;;;;5094382;28;20165;-70
2022/12/18 07:18:43;;;;;;;26.77;12.73;;;-4.00;99.90;;;;;;5116070;28;20238;-70
2022/12/18 07:21:11;;;;;;;21.53;12.53;;;-4.00;99.90;;;;;;5116292;28;20154;-71
2022/12/18 07:23:37;;;;;;;30.77;12.67;;;-3.90;99.90;;;;;;5097831;28;20162;-70
2022/12/18 07:26:05;;;;;;;21.43;11.43;;;-3.90;99.90;;;;;;5097761;28;20165;-71
2022/12/18 07:28:31;;;;;;;21.27;12.30;;;-3.90;99.90;;;;;;5116019;28;20188;-70
2022/12/18 07:31:02;;;;;;;22.67;12.23;;;-3.90;99.90;;;;;;5115896;28;20166;-70
2022/12/18 07:33:27;;;;;;;22.60;12.00;;;-3.90;99.90;;;;;;5097709;28;20159;-71
2022/12/18 07:35:53;;;;;;;23.73;11.70;;;-3.80;99.90;;;;;;5115852;28;20523;-70
2022/12/18 07:38:19;;;;;;;21.20;11.83;;;-3.90;99.90;;;;;;5115792;28;20228;-70
2022/12/18 07:40:44;;;;;;;22.07;12.63;;;-4.00;99.90;;;;;;5097557;28;20173;-70
2022/12/18 07:43:10;;;;;;;25.40;12.03;;;-4.00;99.90;;;;;;5115861;28;20744;-70
2022/12/18 07:45:36;;;;;;;23.83;11.93;;;-4.00;99.90;;;;;;5115612;28;20169;-70
2022/12/18 07:48:01;;;;;;;25.07;12.10;;;-4.00;99.90;;;;;;5115544;28;20568;-70
2022/12/18 07:50:27;;;;;;;22.23;11.97;;;-4.00;99.90;;;;;;5115385;28;20197;-70
2022/12/18 07:52:52;;;;;;;22.47;12.33;;;-4.10;99.90;;;;;;5115454;28;20165;-70
2022/12/18 07:55:18;;;;;;;30.83;17.07;;;-4.10;99.90;;;;;;5115503;28;20154;-70
2022/12/18 07:57:44;;;;;;;43.70;22.23;;;-4.20;99.90;;;;;;5115328;28;20205;-71
2022/12/18 08:00:10;;;;;;;30.67;13.63;;;-4.20;99.90;;;;;;5096983;28;20598;-71
2022/12/18 08:02:35;;;;;;;28.77;12.47;;;-4.20;99.90;;;;;;5115357;28;20178;-70
2022/12/18 08:05:01;;;;;;;28.23;14.60;;;-4.10;99.90;;;;;;5115207;28;20252;-70
2022/12/18 08:07:28;;;;;;;24.83;13.50;;;-4.10;99.90;;;;;;5115307;28;20195;-71
2022/12/18 08:09:53;;;;;;;24.57;12.33;;;-4.10;99.90;;;;;;5115206;28;20249;-71
2022/12/18 08:12:19;;;;;;;21.83;11.63;;;-4.10;99.90;;;;;;5115288;28;20173;-71
2022/12/18 08:14:44;;;;;;;26.17;12.67;;;-4.00;99.90;;;;;;5114651;28;20215;-70
2022/12/18 08:17:10;;;;;;;23.40;11.60;;;-3.90;99.90;;;;;;5115051;28;20608;-70
2022/12/18 08:19:35;;;;;;;18.90;10.53;;;-3.90;99.90;;;;;;5114705;28;20189;-71
2022/12/18 08:22:02;;;;;;;18.63;10.00;;;-3.80;99.90;;;;;;5125812;27;20644;-70
2022/12/18 08:24:28;;;;;;;20.00;10.57;;;-3.70;99.90;;;;;;5135816;27;20154;-70
2022/12/18 08:26:53;;;;;;;19.13;9.83;;;-3.60;99.90;;;;;;5117327;27;20165;-71
2022/12/18 08:29:21;;;;;;;17.57;10.50;;;-3.50;99.90;;;;;;5135064;27;20223;-70
2022/12/18 08:31:47;;;;;;;18.80;10.17;;;-3.40;99.90;;;;;;5135711;27;20176;-71
2022/12/18 08:34:12;;;;;;;21.70;10.30;;;-3.30;99.90;;;;;;5117468;27;20252;-71
2022/12/18 08:36:38;;;;;;;17.83;10.17;;;-3.30;99.90;;;;;;5135716;27;20161;-70
2022/12/18 08:39:04;;;;;;;17.77;10.23;;;-3.20;99.90;;;;;;5135433;27;20173;-71
2022/12/18 08:41:29;;;;;;;18.90;10.17;;;-3.10;99.90;;;;;;5117357;27;20204;-70
2022/12/18 08:46:41;;;;;;;18.97;9.90;;;-3.10;99.90;;;;;;5135853;27;20230;-71
2022/12/18 08:49:08;;;;;;;18.50;10.20;;;-3.00;99.90;;;;;;5116766;27;20205;-71
2022/12/18 08:51:34;;;;;;;21.07;9.97;;;-3.00;99.90;;;;;;5135562;27;20165;-69
2022/12/18 08:54:01;;;;;;;19.50;9.93;;;-2.90;99.90;;;;;;5135278;27;20161;-71
2022/12/18 08:56:27;;;;;;;16.10;8.10;;;-2.80;99.90;;;;;;5135282;27;20617;-71
2022/12/18 08:58:53;;;;;;;17.30;10.33;;;-2.60;99.90;;;;;;5135257;27;20236;-71
2022/12/18 09:01:22;;;;;;;18.03;9.30;;;-2.60;99.90;;;;;;5116585;27;20170;-71
2022/12/18 09:03:50;;;;;;;21.43;10.13;;;-2.40;99.90;;;;;;5135449;27;20169;-71
2022/12/18 09:06:21;;;;;;;17.87;10.13;;;-2.20;99.90;;;;;;5135132;27;20499;-71
2022/12/18 09:08:48;;;;;;;25.10;13.40;;;-2.10;99.90;;;;;;5135272;27;20610;-71
2022/12/18 09:11:23;;;;;;;20.63;9.37;;;-2.00;99.90;;;;;;5134955;27;20158;-71
2022/12/18 09:13:50;;;;;;;16.00;8.80;;;-2.00;99.90;;;;;;5134901;27;20149;-71
2022/12/18 09:16:16;;;;;;;15.00;8.90;;;-1.90;99.90;;;;;;5134542;27;20165;-71
2022/12/18 09:18:41;;;;;;;14.10;8.80;;;-1.80;99.90;;;;;;5134791;27;20159;-71
2022/12/18 09:21:09;;;;;;;14.03;8.83;;;-1.70;99.90;;;;;;5134429;27;20169;-71
2022/12/18 09:23:36;;;;;;;15.80;9.43;;;-1.50;99.90;;;;;;5134718;27;20507;-71
2022/12/18 09:26:05;;;;;;;16.27;8.63;;;-1.50;99.90;;;;;;5134217;27;20194;-72
2022/12/18 09:28:30;;;;;;;16.13;8.67;;;-1.40;99.90;;;;;;5134398;27;20163;-71
2022/12/18 09:30:56;;;;;;;15.43;9.00;;;-1.30;99.90;;;;;;5134407;27;20193;-74
2022/12/18 09:33:23;;;;;;;15.43;8.90;;;-1.10;99.90;;;;;;5134551;27;20173;-71
2022/12/18 09:35:48;;;;;;;18.33;9.17;;;-1.10;99.90;;;;;;5134727;27;20178;-71
2022/12/18 09:38:19;;;;;;;15.93;8.87;;;-0.90;99.90;;;;;;5134080;27;20759;-71
2022/12/18 09:40:51;;;;;;;13.50;8.37;;;-1.00;99.90;;;;;;5133245;27;20190;-71
2022/12/18 09:43:44;;;;;;;15.33;8.67;;;-0.90;99.90;;;;;;5134172;27;20166;-71
2022/12/18 09:46:19;;;;;;;15.43;8.67;;;-0.80;99.90;;;;;;5134283;27;20362;-71
2022/12/18 09:48:49;;;;;;;14.37;8.80;;;-0.70;99.90;;;;;;5118367;27;20166;-70
2022/12/18 09:51:49;;;;;;;13.73;8.57;;;-0.50;99.90;;;;;;5113588;28;20182;-70
2022/12/18 09:54:31;;;;;;;13.33;7.90;;;-0.40;99.90;;;;;;5080212;28;20173;-71
2022/12/18 09:56:57;;;;;;;16.63;9.20;;;-0.30;99.90;;;;;;5113013;28;20163;-70
2022/12/18 09:59:29;;;;;;;14.97;9.00;;;-0.20;99.90;;;;;;5113234;28;20172;-70
2022/12/18 10:01:57;;;;;;;13.97;8.27;;;0.00;99.90;;;;;;5113370;28;20245;-72
2022/12/18 10:04:31;;;;;;;14.23;9.60;;;0.10;99.90;;;;;;5113579;28;20496;-71
2022/12/18 10:07:39;;;;;;;15.33;9.13;;;0.20;99.90;;;;;;5109042;28;20176;-70
2022/12/18 10:10:15;;;;;;;16.10;8.37;;;0.40;99.90;;;;;;5112317;28;20240;-70
2022/12/18 10:13:01;;;;;;;14.43;7.93;;;0.50;99.90;;;;;;5113014;28;20688;-70
2022/12/18 10:15:50;;;;;;;12.67;8.00;;;0.60;99.90;;;;;;5112138;28;20532;-70
2022/12/18 10:18:33;;;;;;;14.53;7.90;;;0.70;99.90;;;;;;5112761;28;20191;-71
2022/12/18 10:21:17;;;;;;;13.80;8.87;;;0.80;99.90;;;;;;5097078;28;20271;-70
2022/12/18 10:24:18;;;;;;;13.80;8.77;;;0.80;99.90;;;;;;5122298;28;20255;-71
2022/12/18 10:26:44;;;;;;;14.70;8.67;;;0.90;99.90;;;;;;5118635;28;20230;-71
2022/12/18 10:29:13;;;;;;;15.97;8.70;;;1.10;99.90;;;;;;5114807;28;20226;-71
2022/12/18 10:31:39;;;;;;;16.53;9.13;;;1.00;99.90;;;;;;5100184;28;20217;-71
2022/12/18 10:34:10;;;;;;;17.37;9.70;;;1.00;99.90;;;;;;5098171;28;20765;-70
2022/12/18 10:36:38;;;;;;;15.33;8.97;;;1.00;99.90;;;;;;5118957;28;20208;-71
2022/12/18 10:39:27;;;;;;;15.50;9.07;;;1.10;99.90;;;;;;5113334;28;20256;-70
2022/12/18 10:42:18;;;;;;;17.13;9.27;;;1.20;99.90;;;;;;5121204;28;20177;-70
2022/12/18 10:44:45;;;;;;;15.73;9.40;;;1.30;99.90;;;;;;5115503;28;20158;-71
2022/12/18 10:47:19;;;;;;;17.63;9.53;;;1.40;99.90;;;;;;5117523;28;20202;-71
2022/12/18 10:49:52;;;;;;;16.97;9.57;;;1.40;99.90;;;;;;5096341;28;20199;-70
2022/12/18 10:52:27;;;;;;;15.30;9.03;;;1.40;99.90;;;;;;5118069;27;20197;-71
2022/12/18 10:54:58;;;;;;;16.13;9.63;;;1.50;99.90;;;;;;5115215;27;20622;-70
2022/12/18 10:57:38;;;;;;;18.53;9.63;;;1.50;99.90;;;;;;5126605;27;20162;-69
2022/12/18 11:00:30;;;;;;;24.03;12.40;;;1.70;99.90;;;;;;5113908;28;20578;-70
2022/12/18 11:02:56;;;;;;;36.80;17.77;;;1.60;99.90;;;;;;5115488;27;20162;-71
2022/12/18 11:05:33;;;;;;;37.63;18.33;;;1.40;99.90;;;;;;5116140;27;20169;-70
2022/12/18 11:08:01;;;;;;;21.13;12.13;;;1.40;99.90;;;;;;5119829;27;20197;-71
2022/12/18 11:10:35;;;;;;;23.27;13.30;;;1.50;99.90;;;;;;5120395;27;20186;-69
2022/12/18 11:13:17;;;;;;;19.03;10.73;;;1.70;99.90;;;;;;5125804;27;20211;-70
2022/12/18 11:15:43;;;;;;;17.90;9.77;;;1.70;99.90;;;;;;5114122;28;20165;-70
2022/12/18 11:18:38;;;;;;;17.90;10.90;;;1.90;99.90;;;;;;5120125;27;20284;-71
2022/12/18 11:21:12;;;;;;;17.17;10.70;;;1.90;99.90;;;;;;5117615;27;20562;-69
2022/12/18 11:23:46;;;;;;;18.77;10.83;;;2.00;99.90;;;;;;5113690;27;20280;-71
2022/12/18 11:26:13;;;;;;;19.80;10.57;;;2.00;99.90;;;;;;5125623;27;20304;-71
2022/12/18 11:28:46;;;;;;;20.80;10.60;;;2.10;99.90;;;;;;5108755;27;20207;-71
2022/12/18 11:31:21;;;;;;;17.07;10.33;;;2.10;99.90;;;;;;5108121;28;20166;-71
2022/12/18 11:34:02;;;;;;;15.90;10.37;;;2.20;99.90;;;;;;5114573;27;20251;-71
2022/12/18 11:36:33;;;;;;;18.27;10.50;;;2.40;99.90;;;;;;5115255;27;20584;-70
2022/12/18 11:39:02;;;;;;;17.87;9.73;;;2.40;99.90;;;;;;5113510;28;20162;-69
2022/12/18 11:44:49;;;;;;;18.70;11.10;;;2.60;99.90;;;;;;5123690;27;20235;-70
2022/12/18 11:47:22;;;;;;;17.13;10.73;;;2.70;99.90;;;;;;5112417;27;20178;-70
2022/12/18 11:49:49;;;;;;;18.73;10.73;;;2.80;99.90;;;;;;5114407;27;20235;-69
2022/12/18 11:52:25;;;;;;;19.53;10.93;;;2.80;99.90;;;;;;5106626;27;20176;-70
2022/12/18 11:55:01;;;;;;;19.97;11.00;;;2.60;99.90;;;;;;5128748;27;20176;-71
2022/12/18 11:57:45;;;;;;;17.10;9.37;;;2.50;99.90;;;;;;5116330;27;20252;-71
2022/12/18 12:00:21;;;;;;;19.30;10.50;;;2.60;99.90;;;;;;5102660;27;20192;-71
2022/12/18 12:03:11;;;;;;;18.67;10.23;;;2.60;99.90;;;;;;5116171;27;20167;-69
2022/12/18 12:05:42;;;;;;;18.80;10.37;;;2.60;99.90;;;;;;5116404;27;20340;-70
2022/12/18 12:08:33;;;;;;;24.67;11.33;;;2.50;99.90;;;;;;5133072;27;20532;-71
2022/12/18 12:11:20;;;;;;;15.80;10.07;;;2.30;99.90;;;;;;5104281;28;20272;-71
2022/12/18 12:14:31;;;;;;;20.83;10.67;;;2.30;99.90;;;;;;5126671;27;20169;-71
2022/12/18 12:17:24;;;;;;;19.07;9.87;;;2.60;99.90;;;;;;5118643;27;20190;-70
2022/12/18 12:20:01;;;;;;;20.00;9.87;;;2.70;99.90;;;;;;5091721;27;20194;-71
2022/12/18 12:23:02;;;;;;;19.50;10.87;;;2.70;99.90;;;;;;5114460;27;20180;-70
2022/12/18 12:25:40;;;;;;;20.43;10.20;;;2.80;99.90;;;;;;5115327;27;20165;-69
2022/12/18 12:28:41;;;;;;;19.30;10.17;;;2.80;99.90;;;;;;5116585;27;20272;-70
2022/12/18 12:31:17;;;;;;;19.67;10.10;;;3.00;99.90;;;;;;5113761;27;20177;-70
2022/12/18 12:34:12;;;;;;;18.77;10.40;;;3.00;99.90;;;;;;5102883;27;20172;-70
2022/12/18 12:37:03;;;;;;;17.63;10.30;;;3.00;99.90;;;;;;5098293;28;20257;-70
2022/12/18 12:39:36;;;;;;;23.33;11.13;;;3.10;99.90;;;;;;5121692;27;20188;-70
2022/12/18 12:44:56;;;;;;;17.87;9.90;;;3.20;99.90;;;;;;5124147;27;20197;-70
2022/12/18 12:47:24;;;;;;;18.97;10.67;;;2.70;99.90;;;;;;5107514;27;20189;-70
2022/12/18 12:49:53;;;;;;;18.90;10.13;;;2.60;99.90;;;;;;5120600;27;20667;-70
2022/12/18 12:52:49;;;;;;;20.00;10.30;;;2.40;99.90;;;;;;5111704;28;20165;-70
2022/12/18 12:55:19;;;;;;;20.87;10.90;;;2.30;99.90;;;;;;5125074;27;20176;-70
2022/12/18 12:58:13;;;;;;;19.27;10.80;;;2.50;99.90;;;;;;5090122;28;20660;-70
2022/12/18 13:01:10;;;;;;;19.90;11.37;;;2.70;99.90;;;;;;5114641;27;20641;-70